CAT,Max TemperatureF,Mean TemperatureF,Min TemperatureF,Max Dew PointF,MeanDew PointF,Min DewpointF,Max Humidity, Mean Humidity, Min Humidity, Max Sea Level PressureIn, Mean Sea Level PressureIn, Min Sea Level PressureIn, Max VisibilityMiles, Mean VisibilityMiles, Min VisibilityMiles, Max Wind SpeedMPH, Mean Wind SpeedMPH, Max Gust SpeedMPH,PrecipitationIn, CloudCover, Events, WindDirDegrees
2012-3-1,93,80,68,63,60,57,73,50,32,29.95,29.90,29.83,6,6,6,9,4,,0.00,1,,114
2012-3-2,93,83,73,64,62,59,69,51,32,30.01,29.95,29.86,6,6,6,10,5,,0.00,2,,103
2012-3-3,93,82,71,66,62,61,69,55,36,29.95,29.91,29.83,6,6,6,12,5,,0.00,1,Thunderstorm,135
2012-3-4,95,82,69,68,65,61,88,55,32,29.92,29.86,29.77,6,6,6,8,5,,0.00,2,,307
2012-3-5,100,84,69,66,62,55,88,50,22,29.89,29.83,29.71,6,6,6,13,5,,0.00,2,,300
2012-3-6,93,83,73,66,65,63,73,56,38,30.01,29.93,29.86,6,6,6,10,6,,0.00,2,,11
2012-3-7,89,79,69,66,63,61,83,54,40,30.06,29.96,29.86,6,6,6,16,8,,0.00,3,,102
2012-3-8,91,80,68,66,61,57,88,56,31,30.04,29.95,29.86,6,6,6,13,5,,0.00,3,,80
2012-3-9,93,78,64,68,61,54,83,55,28,30.06,29.98,29.89,6,6,6,15,6,,0.00,2,,77
2012-3-10,95,80,66,68,62,52,78,49,24,30.09,30.00,29.92,6,6,6,14,7,,0.00,2,,73
2012-3-11,95,80,66,68,62,55,94,48,28,30.06,29.99,29.92,6,6,6,15,7,,0.00,4,,80
2012-3-12,93,80,66,66,61,54,78,51,36,30.06,29.99,29.92,6,6,6,13,7,,0.00,1,,53
2012-3-13,95,82,68,66,63,59,83,57,34,30.06,30.01,29.92,6,6,6,17,5,,0.00,1,Thunderstorm,236
2012-3-14,87,78,69,68,64,61,88,62,46,30.09,30.03,29.95,6,6,6,18,6,,0.00,2,,176
2012-3-15,84,76,68,70,68,66,100,83,55,30.09,30.03,29.95,6,6,6,15,9,,0.00,3,Rain,113
2012-3-16,87,78,68,70,68,66,94,74,49,30.04,29.97,29.89,6,6,6,7,3,,0.00,2,Rain,309
2012-3-17,87,76,66,70,66,63,100,71,43,30.01,29.95,29.92,6,6,6,9,3,,0.00,2,Rain-Thunderstorm,280
2012-3-18,95,80,66,77,63,57,100,60,28,30.06,29.99,29.95,6,6,6,13,5,,0.00,4,,117
2012-3-19,93,80,66,70,62,52,83,57,34,30.12,30.03,29.95,6,6,6,14,5,,0.00,3,,84
2012-3-20,93,80,68,66,63,57,78,57,36,30.12,30.03,29.95,6,6,6,16,8,,0.00,2,,99
2012-3-21,89,79,69,70,66,63,83,59,46,30.12,30.03,29.95,6,6,6,16,11,,0.00,3,,104
2012-3-22,89,78,68,68,63,55,94,61,40,30.12,30.03,29.95,6,6,6,14,7,,0.00,3,,106
2012-3-23,91,78,64,70,62,55,77,60,41,30.09,30.02,29.95,6,6,6,13,6,,0.00,2,,75
2012-3-24,91,78,66,66,59,55,73,53,34,30.09,30.02,29.95,6,6,6,15,8,,0.00,2,,104
2012-3-25,91,78,64,64,60,55,73,53,38,30.12,30.03,29.95,6,6,6,18,9,,0.00,2,,77
2012-3-26,91,78,66,66,64,61,83,56,38,30.09,30.01,29.92,6,6,6,15,9,,0.00,2,,55
2012-3-27,91,80,69,68,65,63,94,61,38,30.01,29.96,29.89,6,6,6,18,8,,0.00,4,Rain,20
2012-3-28,80,73,66,70,68,66,100,84,65,30.06,30.01,29.95,6,6,6,17,8,,0.00,4,Rain,48
2012-3-29,91,80,68,72,69,66,100,72,43,30.06,30.00,29.92,6,6,6,8,3,,0.00,3,,357
2012-3-30,93,81,69,70,66,63,94,59,36,29.98,29.90,29.80,6,6,6,15,6,,0.00,2,,331
2012-3-31,86,77,68,61,57,52,73,52,35,30.04,29.96,29.89,,,,15,6,,0.00,,,225